Time;durP1;ratioP1;P1;durP2;ratioP2;P2;SDS_P1;SDS_P2;PMS_P1;PMS_P2;Temp;Humidity;BMP_temperature;BMP_pressure;BME280_temperature;BME280_humidity;BME280_pressure;Samples;Min_cycle;Max_cycle;Signal;HPM_P1;HPM_P2
2022/11/05 00:10:12;;;;;;;78.50;71.90;;;;;;;;;;1862160;75;25472;-53
2022/11/05 00:18:10;;;;;;;91.37;84.15;;;;;;;;;;1878478;75;25258;-54
2022/11/05 00:20:37;;;;;;;89.13;82.53;;;;;;;;;;1873497;75;25715;-53
2022/11/05 00:25:55;;;;;;;28.30;14.63;;;;;;;;;;1877483;75;27370;-55
2022/11/05 00:28:24;;;;;;;30.00;12.47;;;;;;;;;;1877399;75;25420;-50
2022/11/05 00:30:53;;;;;;;23.70;13.00;;;;;;;;;;1885816;75;25285;-54
2022/11/05 00:33:20;;;;;;;24.52;12.28;;;;;;;;;;1873409;75;27610;-50
2022/11/05 00:35:46;;;;;;;23.80;13.38;;;;;;;;;;1875485;75;25455;-49
2022/11/05 00:38:13;;;;;;;28.92;13.28;;;;;;;;;;1870140;75;27293;-49
2022/11/05 00:40:40;;;;;;;23.05;13.05;;;;;;;;;;1875373;75;25444;-50
2022/11/05 00:45:53;;;;;;;24.07;13.05;;;;;;;;;;1885012;75;25561;-49
2022/11/05 00:51:07;;;;;;;23.15;11.83;;;;;;;;;;1883094;75;27432;-54
2022/11/05 00:53:35;;;;;;;21.87;12.37;;;;;;;;;;1868498;75;25271;-55
2022/11/05 00:56:04;;;;;;;24.87;13.30;;;;;;;;;;1875860;75;25280;-51
2022/11/05 00:58:30;;;;;;;23.77;12.75;;;;;;;;;;1867362;75;25597;-50
2022/11/05 01:00:59;;;;;;;28.45;12.93;;;;;;;;;;1862196;75;25298;-50
2022/11/05 01:03:30;;;;;;;26.45;13.13;;;;;;;;;;1878102;75;29531;-50
2022/11/05 01:06:00;;;;;;;23.57;11.97;;;;;;;;;;1878304;75;25348;-50
2022/11/05 01:08:27;;;;;;;28.23;13.95;;;;;;;;;;1877398;75;25312;-51
2022/11/05 01:10:56;;;;;;;26.48;12.58;;;;;;;;;;1879431;75;25683;-50
2022/11/05 01:13:25;;;;;;;23.47;12.70;;;;;;;;;;1874622;75;25249;-50
2022/11/05 01:15:53;;;;;;;23.80;12.05;;;;;;;;;;1872300;75;29515;-50
2022/11/05 01:18:21;;;;;;;19.98;11.93;;;;;;;;;;1863144;75;25661;-50
2022/11/05 01:20:49;;;;;;;28.55;13.40;;;;;;;;;;1877580;75;25290;-51
2022/11/05 01:23:17;;;;;;;21.55;12.28;;;;;;;;;;1888792;75;26055;-51
2022/11/05 01:25:44;;;;;;;20.27;12.55;;;;;;;;;;1881663;75;25692;-51
2022/11/05 01:28:12;;;;;;;23.87;12.82;;;;;;;;;;1876983;75;28121;-51
2022/11/05 01:30:39;;;;;;;22.90;12.63;;;;;;;;;;1881964;75;25289;-50
2022/11/05 01:33:06;;;;;;;22.45;11.40;;;;;;;;;;1880050;75;25550;-51
2022/11/05 01:35:33;;;;;;;21.55;12.82;;;;;;;;;;1877235;75;25509;-51
2022/11/05 01:38:00;;;;;;;22.07;13.00;;;;;;;;;;1889415;75;25323;-50
2022/11/05 01:40:27;;;;;;;23.67;12.13;;;;;;;;;;1872474;75;27465;-51
2022/11/05 01:42:54;;;;;;;22.42;12.82;;;;;;;;;;1878809;75;25571;-50
2022/11/05 01:45:26;;;;;;;31.20;12.60;;;;;;;;;;1869268;75;25565;-50
2022/11/05 01:48:08;;;;;;;22.75;11.35;;;;;;;;;;1869331;75;25511;-51
2022/11/05 01:50:38;;;;;;;21.23;11.35;;;;;;;;;;1861281;75;25349;-50
2022/11/05 01:53:17;;;;;;;21.82;11.20;;;;;;;;;;1860670;75;27367;-50
2022/11/05 01:56:06;;;;;;;22.75;12.25;;;;;;;;;;1883140;75;25768;-50
2022/11/05 01:58:39;;;;;;;17.93;10.23;;;;;;;;;;1882172;75;25637;-49
2022/11/05 02:01:06;;;;;;;24.82;12.43;;;;;;;;;;1873647;75;25503;-49
2022/11/05 02:03:34;;;;;;;23.32;11.43;;;;;;;;;;1869875;75;25662;-50
2022/11/05 02:06:02;;;;;;;22.20;12.23;;;;;;;;;;1863638;75;27559;-51
2022/11/05 02:08:39;;;;;;;22.30;11.88;;;;;;;;;;1844016;75;25450;-50
2022/11/05 02:11:07;;;;;;;20.62;12.28;;;;;;;;;;1849959;75;25805;-50
2022/11/05 02:13:36;;;;;;;26.82;12.80;;;;;;;;;;1859727;76;25613;-52
2022/11/05 02:16:23;;;;;;;21.12;11.88;;;;;;;;;;1857966;76;25332;-51
2022/11/05 02:19:02;;;;;;;22.37;11.93;;;;;;;;;;1857632;76;27449;-51
2022/11/05 02:21:57;;;;;;;17.75;11.22;;;;;;;;;;1853469;76;25419;-51
2022/11/05 02:24:31;;;;;;;20.82;11.43;;;;;;;;;;1867404;76;25679;-51
2022/11/05 02:27:12;;;;;;;24.00;12.68;;;;;;;;;;1873821;76;25510;-49
2022/11/05 02:30:02;;;;;;;22.90;12.82;;;;;;;;;;1850183;76;25358;-50
2022/11/05 02:32:51;;;;;;;29.20;13.10;;;;;;;;;;1869439;76;27594;-50
2022/11/05 02:35:46;;;;;;;23.77;12.53;;;;;;;;;;1845602;76;25654;-53
2022/11/05 02:38:17;;;;;;;23.47;12.15;;;;;;;;;;1848177;76;25491;-54
2022/11/05 02:40:47;;;;;;;28.45;13.10;;;;;;;;;;1854066;76;25396;-53
2022/11/05 02:43:18;;;;;;;26.25;12.40;;;;;;;;;;1857465;76;25759;-53
2022/11/05 02:46:16;;;;;;;21.42;11.28;;;;;;;;;;1861407;76;28123;-53
2022/11/05 02:48:53;;;;;;;24.45;12.13;;;;;;;;;;1863322;76;25612;-54
2022/11/05 02:51:32;;;;;;;25.77;12.65;;;;;;;;;;1852270;76;25557;-54
2022/11/05 02:54:10;;;;;;;21.90;12.53;;;;;;;;;;1848046;76;25508;-54
2022/11/05 02:56:40;;;;;;;21.37;12.55;;;;;;;;;;1843727;76;25289;-52
2022/11/05 02:59:07;;;;;;;25.43;12.58;;;;;;;;;;1867024;76;27543;-50
2022/11/05 03:01:36;;;;;;;23.95;11.88;;;;;;;;;;1876663;76;25645;-49
2022/11/05 03:04:05;;;;;;;21.48;12.07;;;;;;;;;;1859634;76;25344;-50
2022/11/05 03:06:45;;;;;;;26.82;11.97;;;;;;;;;;1843728;76;25675;-52
2022/11/05 03:09:37;;;;;;;23.67;12.43;;;;;;;;;;1871638;76;25045;-50
2022/11/05 03:12:29;;;;;;;22.15;12.20;;;;;;;;;;1848399;76;27529;-50
2022/11/05 03:15:09;;;;;;;22.67;11.45;;;;;;;;;;1858498;75;25391;-52
2022/11/05 03:17:59;;;;;;;27.32;12.47;;;;;;;;;;1858246;76;25548;-50
2022/11/05 03:20:36;;;;;;;30.00;13.15;;;;;;;;;;1852547;76;25550;-49
2022/11/05 03:23:34;;;;;;;28.42;13.18;;;;;;;;;;1854793;76;25627;-51
2022/11/05 03:26:16;;;;;;;22.82;12.47;;;;;;;;;;1853426;76;27452;-50
2022/11/05 03:28:47;;;;;;;27.30;12.65;;;;;;;;;;1842775;76;25305;-50
2022/11/05 03:31:15;;;;;;;24.60;12.33;;;;;;;;;;1841231;77;25638;-49
2022/11/05 03:33:44;;;;;;;25.08;13.55;;;;;;;;;;1850755;76;25488;-50
2022/11/05 03:36:15;;;;;;;25.35;13.48;;;;;;;;;;1857664;76;25262;-52
2022/11/05 03:38:45;;;;;;;22.45;11.95;;;;;;;;;;1843139;76;27512;-50
2022/11/05 03:41:15;;;;;;;23.77;12.60;;;;;;;;;;1868128;76;25336;-51
2022/11/05 03:43:45;;;;;;;23.92;12.78;;;;;;;;;;1875002;76;25328;-50
2022/11/05 03:46:19;;;;;;;26.17;12.82;;;;;;;;;;1860765;76;25475;-49
2022/11/05 03:48:51;;;;;;;24.95;13.38;;;;;;;;;;1854585;76;25341;-49
2022/11/05 03:51:35;;;;;;;29.18;12.90;;;;;;;;;;1849726;76;27501;-49
2022/11/05 03:54:05;;;;;;;25.25;12.68;;;;;;;;;;1859422;76;25255;-50
2022/11/05 03:56:39;;;;;;;;;;;;;;;;;;1844132;76;25683;-50
2022/11/05 03:59:09;;;;;;;23.30;11.80;;;;;;;;;;1851100;76;25609;-50
2022/11/05 04:01:37;;;;;;;27.93;13.80;;;;;;;;;;1850052;76;25696;-50
2022/11/05 04:04:06;;;;;;;29.57;14.20;;;;;;;;;;1856984;76;27529;-51
2022/11/05 04:14:54;;;;;;;26.03;14.80;;;;;;;;;;1860143;76;25719;-51
2022/11/05 04:17:21;;;;;;;21.40;12.50;;;;;;;;;;1848291;76;27611;-50
2022/11/05 04:25:22;;;;;;;27.40;14.50;;;;;;;;;;1867188;76;25441;-50
2022/11/05 04:27:49;;;;;;;32.98;16.45;;;;;;;;;;1875476;76;25641;-51
2022/11/05 04:30:18;;;;;;;26.25;14.65;;;;;;;;;;1859109;76;27335;-51
2022/11/05 04:32:57;;;;;;;24.80;13.28;;;;;;;;;;1848160;76;25491;-51
2022/11/05 04:35:28;;;;;;;27.70;13.93;;;;;;;;;;1842582;76;25337;-50
2022/11/05 04:37:55;;;;;;;28.25;15.48;;;;;;;;;;1868358;76;25714;-50
2022/11/05 04:40:23;;;;;;;27.20;16.48;;;;;;;;;;1843130;76;25392;-50
2022/11/05 04:42:54;;;;;;;25.90;16.30;;;;;;;;;;1863558;76;27403;-50
2022/11/05 04:45:23;;;;;;;27.20;15.78;;;;;;;;;;1851432;76;25700;-51
2022/11/05 04:47:52;;;;;;;33.60;17.50;;;;;;;;;;1857921;76;25511;-50
2022/11/05 04:50:18;;;;;;;25.55;16.77;;;;;;;;;;1865623;76;25508;-52
2022/11/05 04:52:45;;;;;;;29.55;18.75;;;;;;;;;;1862833;76;25653;-52
2022/11/05 04:55:14;;;;;;;27.25;17.90;;;;;;;;;;1860019;76;28053;-50
2022/11/05 04:57:41;;;;;;;29.92;18.37;;;;;;;;;;1847830;76;27194;-50
2022/11/05 05:00:10;;;;;;;32.05;22.17;;;;;;;;;;1851093;76;25652;-50
2022/11/05 05:02:38;;;;;;;31.80;26.37;;;;;;;;;;1862923;76;25650;-50
2022/11/05 05:05:06;;;;;;;44.55;39.98;;;;;;;;;;1851925;76;25293;-50
2022/11/05 05:07:34;;;;;;;53.17;48.33;;;;;;;;;;1873075;75;28011;-49
2022/11/05 05:10:05;;;;;;;48.42;43.83;;;;;;;;;;1857882;76;25429;-50
2022/11/05 05:12:33;;;;;;;68.62;63.02;;;;;;;;;;1849240;76;25444;-49
2022/11/05 05:15:00;;;;;;;46.28;41.42;;;;;;;;;;1872277;76;25697;-49
2022/11/05 05:17:27;;;;;;;60.65;55.17;;;;;;;;;;1846995;76;25575;-50
2022/11/05 05:22:41;;;;;;;67.20;61.30;;;;;;;;;;1861576;76;25420;-50
2022/11/05 05:25:08;;;;;;;67.80;61.45;;;;;;;;;;1868247;76;25702;-50
2022/11/05 05:27:35;;;;;;;77.20;70.17;;;;;;;;;;1852539;76;25488;-52
2022/11/05 05:30:05;;;;;;;84.52;77.40;;;;;;;;;;1851112;76;25477;-51
2022/11/05 05:32:33;;;;;;;96.25;88.37;;;;;;;;;;1866494;75;27524;-52
2022/11/05 05:35:00;;;;;;;95.60;87.62;;;;;;;;;;1874840;76;25293;-52
2022/11/05 05:37:27;;;;;;;93.67;85.87;;;;;;;;;;1849292;76;25354;-51
2022/11/05 05:39:53;;;;;;;93.62;85.90;;;;;;;;;;1843906;76;25707;-50
2022/11/05 05:42:21;;;;;;;95.80;87.67;;;;;;;;;;1848106;76;25282;-51
2022/11/05 05:44:48;;;;;;;94.70;86.87;;;;;;;;;;1858640;76;27374;-50
2022/11/05 05:47:15;;;;;;;96.45;88.07;;;;;;;;;;1864243;76;25585;-51
2022/11/05 05:49:42;;;;;;;95.83;88.27;;;;;;;;;;1843410;76;25710;-52
2022/11/05 05:52:09;;;;;;;97.17;89.22;;;;;;;;;;1841432;76;25506;-50
2022/11/05 05:54:36;;;;;;;97.40;89.55;;;;;;;;;;1864535;76;25262;-51
2022/11/05 05:57:03;;;;;;;96.72;88.87;;;;;;;;;;1848062;76;27367;-50
2022/11/05 05:59:30;;;;;;;95.67;87.60;;;;;;;;;;1850954;76;25291;-51
2022/11/05 06:01:57;;;;;;;97.27;89.22;;;;;;;;;;1861593;76;25372;-51
2022/11/05 06:04:24;;;;;;;96.40;88.07;;;;;;;;;;1857719;76;26291;-51
2022/11/05 06:06:51;;;;;;;99.97;91.40;;;;;;;;;;1860639;76;25706;-50
2022/11/05 06:09:18;;;;;;;96.17;88.52;;;;;;;;;;1865511;76;27471;-51
2022/11/05 06:11:45;;;;;;;94.05;86.25;;;;;;;;;;1850931;76;25344;-53
2022/11/05 06:14:12;;;;;;;92.88;84.87;;;;;;;;;;1873256;76;25680;-50
2022/11/05 06:16:39;;;;;;;90.05;82.42;;;;;;;;;;1866633;76;25618;-52
2022/11/05 06:19:06;;;;;;;94.05;86.22;;;;;;;;;;1851136;76;25310;-50
2022/11/05 06:21:34;;;;;;;92.82;84.37;;;;;;;;;;1857265;76;28055;-50
2022/11/05 06:24:03;;;;;;;95.45;87.75;;;;;;;;;;1841463;77;25777;-51
2022/11/05 06:26:31;;;;;;;91.72;84.03;;;;;;;;;;1857913;76;25458;-53
2022/11/05 06:28:58;;;;;;;91.15;83.10;;;;;;;;;;1848182;76;25567;-53
2022/11/05 06:31:25;;;;;;;90.50;82.80;;;;;;;;;;1841551;76;25313;-52
2022/11/05 06:33:52;;;;;;;68.92;62.95;;;;;;;;;;1841511;76;27373;-52
2022/11/05 06:36:20;;;;;;;91.47;84.17;;;;;;;;;;1850872;76;26237;-54
2022/11/05 06:38:47;;;;;;;30.43;15.03;;;;;;;;;;1860169;76;25551;-53
2022/11/05 06:41:15;;;;;;;28.38;15.75;;;;;;;;;;1854812;76;25778;-51
2022/11/05 06:43:42;;;;;;;31.37;16.10;;;;;;;;;;1857687;76;25362;-51
2022/11/05 06:46:11;;;;;;;27.30;16.60;;;;;;;;;;1841443;77;27408;-52
2022/11/05 06:48:39;;;;;;;90.57;83.17;;;;;;;;;;1877678;76;25323;-51
2022/11/05 06:51:07;;;;;;;94.92;86.90;;;;;;;;;;1850917;76;25367;-51
2022/11/05 06:53:35;;;;;;;95.38;87.65;;;;;;;;;;1859399;76;25526;-52
2022/11/05 06:56:05;;;;;;;95.97;87.12;;;;;;;;;;1875313;76;25747;-51
2022/11/05 06:58:34;;;;;;;91.97;83.97;;;;;;;;;;1857582;76;29551;-52
2022/11/05 07:01:07;;;;;;;29.27;15.90;;;;;;;;;;1857767;76;25633;-50
2022/11/05 07:03:36;;;;;;;93.70;85.60;;;;;;;;;;1861497;76;25484;-51
2022/11/05 07:06:04;;;;;;;95.15;86.90;;;;;;;;;;1854778;76;32300;-51
2022/11/05 07:08:32;;;;;;;91.87;84.10;;;;;;;;;;1854637;76;25535;-52
2022/11/05 07:11:00;;;;;;;94.28;86.12;;;;;;;;;;1857748;76;27952;-50
2022/11/05 07:13:27;;;;;;;93.33;84.90;;;;;;;;;;1855385;76;25703;-50
2022/11/05 07:15:56;;;;;;;10.00;9.50;;;;;;;;;;1852627;76;25659;-50
2022/11/05 07:18:24;;;;;;;5.28;5.05;;;;;;;;;;1860667;76;25490;-51
2022/11/05 07:20:51;;;;;;;8.20;7.77;;;;;;;;;;1864591;76;25321;-50
2022/11/05 07:23:18;;;;;;;9.40;8.87;;;;;;;;;;1850030;76;27337;-52
2022/11/05 07:25:45;;;;;;;25.68;12.80;;;;;;;;;;1850627;76;25340;-52
2022/11/05 07:28:13;;;;;;;26.35;15.38;;;;;;;;;;1850981;76;25330;-51
2022/11/05 07:30:40;;;;;;;29.98;15.98;;;;;;;;;;1848063;76;25578;-50
2022/11/05 07:33:08;;;;;;;31.00;15.95;;;;;;;;;;1871673;76;25411;-50
2022/11/05 07:35:35;;;;;;;36.48;17.07;;;;;;;;;;1868091;76;27574;-51
2022/11/05 07:38:03;;;;;;;30.12;16.32;;;;;;;;;;1855447;76;25991;-52
2022/11/05 07:40:30;;;;;;;34.00;15.13;;;;;;;;;;1864014;76;25535;-51
2022/11/05 07:43:00;;;;;;;32.63;15.48;;;;;;;;;;1860526;76;25345;-51
2022/11/05 07:45:29;;;;;;;27.70;15.55;;;;;;;;;;1841663;76;25697;-53
2022/11/05 07:48:00;;;;;;;30.32;16.42;;;;;;;;;;1841657;76;27391;-51
2022/11/05 07:50:30;;;;;;;26.45;15.08;;;;;;;;;;1864646;76;25420;-51
2022/11/05 07:53:07;;;;;;;29.75;15.83;;;;;;;;;;1851918;76;25542;-51
2022/11/05 07:55:35;;;;;;;28.80;15.58;;;;;;;;;;1863968;76;25628;-50
2022/11/05 07:58:03;;;;;;;28.60;16.80;;;;;;;;;;1841386;76;25283;-50
2022/11/05 08:00:32;;;;;;;30.35;16.52;;;;;;;;;;1852045;76;27368;-51
2022/11/05 08:03:07;;;;;;;29.42;17.80;;;;;;;;;;1862047;76;25677;-49
2022/11/05 08:05:38;;;;;;;31.55;16.27;;;;;;;;;;1842467;76;25286;-50
2022/11/05 08:08:10;;;;;;;27.05;15.68;;;;;;;;;;1857565;76;25658;-54
2022/11/05 08:10:38;;;;;;;32.10;16.75;;;;;;;;;;1854835;76;25277;-51
2022/11/05 08:13:07;;;;;;;33.78;19.37;;;;;;;;;;1870994;76;28143;-51
2022/11/05 08:15:35;;;;;;;95.32;86.92;;;;;;;;;;1860527;76;32702;-51
2022/11/05 08:18:06;;;;;;;96.82;88.70;;;;;;;;;;1850920;76;25304;-50
2022/11/05 08:20:35;;;;;;;90.92;83.47;;;;;;;;;;1849012;76;25729;-50
2022/11/05 08:23:03;;;;;;;93.70;85.20;;;;;;;;;;1857702;76;25280;-51
2022/11/05 08:25:32;;;;;;;89.00;81.60;;;;;;;;;;1845147;76;27894;-50
2022/11/05 08:28:02;;;;;;;94.52;86.22;;;;;;;;;;1853642;76;27318;-52
2022/11/05 08:30:31;;;;;;;90.60;82.50;;;;;;;;;;1818840;77;25274;-51
2022/11/05 08:33:01;;;;;;;91.35;83.17;;;;;;;;;;1775437;79;25456;-52
2022/11/05 08:35:29;;;;;;;92.08;84.07;;;;;;;;;;1801047;78;25360;-51
2022/11/05 08:37:57;;;;;;;91.55;83.25;;;;;;;;;;1804243;78;27381;-52
2022/11/05 08:40:26;;;;;;;91.47;83.30;;;;;;;;;;1780885;78;25715;-51
2022/11/05 08:42:59;;;;;;;92.15;84.45;;;;;;;;;;1859643;76;25273;-50
2022/11/05 08:45:26;;;;;;;88.10;80.03;;;;;;;;;;1861027;75;25659;-50
2022/11/05 08:48:05;;;;;;;41.73;38.40;;;;;;;;;;1850436;76;25682;-51
2022/11/05 08:50:34;;;;;;;19.70;10.85;;;;;;;;;;1853856;76;27379;-50
2022/11/05 08:55:28;;;;;;;31.65;17.17;;;;;;;8.46;83.06;99880.40;1868198;76;34662;-51
2022/11/05 08:57:59;;;;;;;29.87;17.25;;;;;;;8.39;83.02;99878.91;1831334;78;25459;-50
2022/11/05 09:00:29;;;;;;;31.05;16.93;;;;;;;8.37;83.11;99873.00;1824535;78;27537;-52
2022/11/05 09:02:59;;;;;;;35.48;18.67;;;;;;;8.39;83.31;99872.70;1824399;78;25580;-52
2022/11/05 09:05:30;;;;;;;30.60;17.15;;;;;;;8.44;83.27;99876.66;1824475;78;25587;-51
2022/11/05 09:07:58;;;;;;;35.80;18.17;;;;;;;8.45;83.28;99877.48;1824342;78;25363;-48
2022/11/05 09:10:24;;;;;;;32.35;16.67;;;;;;;8.48;83.25;99883.05;1824506;78;25373;-50
2022/11/05 09:12:50;;;;;;;35.50;18.60;;;;;;;8.48;83.22;99890.32;1824416;78;27520;-50
2022/11/05 09:15:16;;;;;;;35.70;19.95;;;;;;;8.49;83.08;99899.45;1824436;78;25677;-51
2022/11/05 09:20:18;;;;;;;47.50;25.25;;;;;;;8.51;83.40;99894.58;1795625;76;27104;-52
2022/11/05 09:28:14;;;;;;;44.53;30.97;;;;;;;8.53;83.12;99886.98;1747012;78;26821;-72
2022/11/05 09:30:44;;;;;;;25.55;12.37;;;;;;;8.58;83.27;99900.87;1733572;82;25590;-69
2022/11/05 09:33:14;;;;;;;31.45;17.10;;;;;;;8.59;83.16;99899.22;1733526;82;25456;-70
2022/11/05 09:35:42;;;;;;;36.00;20.55;;;;;;;8.59;83.18;99895.73;1733744;82;25323;-70
2022/11/05 09:38:12;;;;;;;36.38;18.82;;;;;;;8.62;83.27;99907.27;1733892;82;27847;-70
2022/11/05 09:40:44;;;;;;;36.48;20.17;;;;;;;8.62;83.13;99914.00;1733646;82;25542;-68
2022/11/05 09:43:21;;;;;;;34.38;18.48;;;;;;;8.63;82.94;99925.58;1725834;82;25528;-70
2022/11/05 09:45:53;;;;;;;35.25;18.32;;;;;;;8.63;83.03;99918.84;1733568;82;25818;-69
2022/11/05 09:48:25;;;;;;;36.42;18.82;;;;;;;8.65;83.03;99917.97;1733628;82;25538;-69
2022/11/05 09:50:53;;;;;;;40.80;23.07;;;;;;;8.65;83.06;99924.72;1733567;82;27399;-70
2022/11/05 09:53:22;;;;;;;37.23;19.40;;;;;;;8.68;83.27;99931.64;1733499;82;25493;-72
2022/11/05 09:55:58;;;;;;;43.48;36.40;;;;;;;8.70;83.38;99924.59;1733432;82;25339;-51
2022/11/05 09:58:53;;;;;;;11.43;10.87;;;;;;;8.71;83.17;99927.55;1733443;82;26121;-50
2022/11/05 10:01:24;;;;;;;41.03;39.20;;;;;;;;;;1732879;82;25500;-49
2022/11/05 10:03:55;;;;;;;22.40;21.37;;;;;;;;;;1733573;82;27327;-49
2022/11/05 10:06:25;;;;;;;8.80;8.47;;;;;;;;;;1733039;82;25498;-50
2022/11/05 10:09:08;;;;;;;92.15;84.65;;;;;;;;;;1732930;82;25374;-50
2022/11/05 10:11:41;;;;;;;91.10;82.75;;;;;;;;;;1732983;82;25333;-50
2022/11/05 10:14:15;;;;;;;87.60;79.97;;;;;;;;;;1732988;82;25377;-51
2022/11/05 10:16:45;;;;;;;10.47;9.97;;;;;;;;;;1732064;82;27566;-51
2022/11/05 10:19:23;;;;;;;9.13;8.77;;;;;;;;;;1732885;82;25538;-52
2022/11/05 10:21:56;;;;;;;11.12;10.72;;;;;;;;;;1733161;82;32078;-54
2022/11/05 10:24:23;;;;;;;7.60;7.30;;;;;;;;;;1732296;82;25820;-55
2022/11/05 10:26:52;;;;;;;5.72;5.53;;;;;;;;;;1732950;82;25510;-49
2022/11/05 10:29:23;;;;;;;9.10;8.68;;;;;;;;;;1729137;82;27343;-57
2022/11/05 10:31:52;;;;;;;7.50;7.15;;;;;;;;;;1724215;83;25667;-58
2022/11/05 10:34:20;;;;;;;9.90;9.50;;;;;;;;;;1756018;81;25374;-56
2022/11/05 10:36:48;;;;;;;6.62;6.33;;;;;;;;;;1756301;81;25599;-56
2022/11/05 10:39:17;;;;;;;6.20;5.97;;;;;;;;;;1756577;81;25550;-58
2022/11/05 10:42:16;;;;;;;5.50;5.30;;;;;;;;;;1756332;81;27415;-54
2022/11/05 10:44:59;;;;;;;3.12;3.02;;;;;;;;;;1756274;81;25987;-57
2022/11/05 10:47:39;;;;;;;3.25;3.15;;;;;;;;;;1715388;83;25482;-56
2022/11/05 10:50:15;;;;;;;6.37;6.17;;;;;;;;;;1715416;83;25341;-57
2022/11/05 10:52:54;;;;;;;6.33;6.13;;;;;;;;;;1712314;83;25404;-57
2022/11/05 10:55:34;;;;;;;5.97;5.77;;;;;;;;;;1715549;83;28303;-57
2022/11/05 10:58:11;;;;;;;8.15;7.85;;;;;;;;;;1715366;83;25494;-57
2022/11/05 11:00:38;;;;;;;11.53;11.10;;;;;;;;;;1715396;83;25379;-54
2022/11/05 11:03:25;;;;;;;5.47;5.28;;;;;;;;;;1715506;83;25517;-58
2022/11/05 11:05:58;;;;;;;3.40;3.30;;;;;;;;;;1715424;83;25391;-57
2022/11/05 11:08:27;;;;;;;2.62;2.52;;;;;;;;;;1715491;83;28104;-58
2022/11/05 11:10:55;;;;;;;;;;;;;;;;;;1717892;83;25544;-56
2022/11/05 11:13:25;;;;;;;3.55;3.45;;;;;;;;;;1715651;83;35177;-57
2022/11/05 11:15:54;;;;;;;2.40;2.30;;;;;;;;;;1715362;83;27351;-57
2022/11/05 11:18:36;;;;;;;5.53;5.22;;;;;;;;;;1715408;83;25514;-57
2022/11/05 11:21:07;;;;;;;5.90;5.60;;;;;;;;;;1715479;83;27335;-57
2022/11/05 11:23:40;;;;;;;3.55;3.35;;;;;;;;;;1719446;81;27372;-57
2022/11/05 11:26:07;;;;;;;3.92;3.72;;;;;;;;;;1756307;81;25519;-54
2022/11/05 15:38:59;;;;;;;39.13;27.58;;;;;;;8.62;87.48;100194.95;1868324;76;34683;-54
2022/11/05 15:41:32;;;;;;;42.38;28.05;;;;;;;8.48;87.45;100199.77;1824500;78;25570;-54
2022/11/05 15:44:01;;;;;;;44.40;28.50;;;;;;;8.43;87.72;100195.00;1824563;78;27443;-54
2022/11/05 15:46:28;;;;;;;47.70;30.77;;;;;;;8.36;88.23;100205.61;1824599;78;25383;-54
2022/11/05 15:49:05;;;;;;;43.95;28.50;;;;;;;8.31;88.23;100202.18;1824517;78;25501;-54
2022/11/05 15:51:34;;;;;;;45.55;30.15;;;;;;;8.27;88.57;100202.53;1824473;78;25648;-51
2022/11/05 15:54:04;;;;;;;54.42;34.27;;;;;;;8.26;89.09;100203.62;1824692;78;25630;-55
2022/11/05 15:56:42;;;;;;;53.63;34.18;;;;;;;8.25;89.38;100200.13;1824619;78;27561;-51
2022/11/05 15:59:19;;;;;;;48.50;32.10;;;;;;;8.28;89.91;100204.14;1824189;78;25537;-51
2022/11/05 16:02:00;;;;;;;50.17;33.23;;;;;;;8.28;89.97;100206.84;1824291;78;25640;-48
2022/11/05 16:04:31;;;;;;;50.17;32.15;;;;;;;8.29;90.06;100207.07;1824437;78;25381;-49
2022/11/05 16:07:10;;;;;;;69.17;45.98;;;;;;;8.29;89.95;100206.55;1824538;78;25628;-53
2022/11/05 16:09:40;;;;;;;59.83;39.98;;;;;;;8.31;90.38;100208.92;1824510;78;28312;-51
2022/11/05 16:12:24;;;;;;;52.27;33.70;;;;;;;8.34;90.51;100216.42;1824331;78;26115;-49
2022/11/05 16:15:10;;;;;;;49.20;32.23;;;;;;;8.32;90.35;100215.36;1809771;78;25548;-49
2022/11/05 16:17:49;;;;;;;47.80;31.17;;;;;;;8.28;89.94;100217.06;1824373;78;25546;-50
2022/11/05 16:20:31;;;;;;;54.03;33.30;;;;;;;8.26;90.04;100230.03;1824667;78;25541;-50
2022/11/05 16:23:03;;;;;;;53.50;33.13;;;;;;;8.22;90.13;100235.22;1824446;78;27452;-50
2022/11/05 16:25:42;;;;;;;53.38;33.65;;;;;;;8.21;90.28;100233.60;1829672;78;25763;-50
2022/11/05 16:28:28;;;;;;;56.05;34.60;;;;;;;8.19;90.47;100228.27;1822970;78;25757;-50
2022/11/05 16:31:00;;;;;;;53.90;35.23;;;;;;;8.17;90.40;100231.78;1823066;78;25913;-52
2022/11/05 16:33:35;;;;;;;52.53;32.95;;;;;;;8.14;90.61;100229.14;1823784;78;25299;-53
2022/11/05 16:36:07;;;;;;;50.45;33.35;;;;;;;8.11;90.57;100231.08;1815563;78;27919;-50
2022/11/05 16:38:37;;;;;;;54.15;34.48;;;;;;;8.10;90.72;100234.06;1824423;77;25582;-50
2022/11/05 16:41:15;;;;;;;58.13;34.10;;;;;;;8.09;90.92;100236.48;1824556;78;25531;-52
2022/11/05 16:44:01;;;;;;;50.58;33.08;;;;;;;8.06;91.15;100239.23;1824552;78;25469;-52
2022/11/05 16:46:31;;;;;;;53.35;34.45;;;;;;;8.07;91.24;100248.93;1823800;78;25628;-49
2022/11/05 16:48:58;;;;;;;51.60;33.35;;;;;;;8.08;91.51;100245.69;1824001;78;27533;-50
2022/11/05 16:51:28;;;;;;;57.93;35.92;;;;;;;8.07;91.40;100252.97;1823622;78;25383;-50
2022/11/05 16:53:54;;;;;;;60.00;36.33;;;;;;;8.05;91.51;100259.17;1791269;80;25423;-48
2022/11/05 16:56:21;;;;;;;58.20;36.73;;;;;;;8.07;91.76;100265.09;1792028;79;34960;-52
2022/11/05 16:58:49;;;;;;;62.35;36.88;;;;;;;8.10;91.93;100273.12;1792181;80;25375;-52
2022/11/05 17:01:23;;;;;;;57.73;36.30;;;;;;;8.10;92.00;100273.12;1791799;79;27562;-53
2022/11/05 17:03:52;;;;;;;60.20;36.58;;;;;;;8.10;91.97;100270.42;1791769;80;25327;-51
2022/11/05 17:06:21;;;;;;;56.60;36.58;;;;;;;8.10;92.08;100275.27;1791578;79;25488;-51
2022/11/05 17:08:49;;;;;;;60.58;38.17;;;;;;;8.09;92.08;100272.33;1791735;80;25541;-51
2022/11/05 17:11:20;;;;;;;56.20;36.77;;;;;;;8.09;92.09;100275.02;1791386;80;25389;-50
2022/11/05 17:13:48;;;;;;;63.15;38.30;;;;;;;8.11;92.16;100280.13;1791478;79;28058;-53
2022/11/05 17:16:17;;;;;;;55.30;38.08;;;;;;;8.11;92.32;100289.00;1791331;80;25616;-50
2022/11/05 17:18:45;;;;;;;61.13;36.35;;;;;;;8.12;92.48;100287.92;1791585;80;25661;-49
2022/11/05 17:21:14;;;;;;;58.95;37.85;;;;;;;8.13;92.62;100288.16;1791380;80;25546;-49
2022/11/05 17:23:41;;;;;;;58.50;36.53;;;;;;;8.15;92.57;100296.73;1791650;79;25482;-49
2022/11/05 17:26:11;;;;;;;56.95;36.08;;;;;;;8.16;92.58;100299.70;1791447;80;27698;-49
2022/11/05 17:28:40;;;;;;;58.73;36.98;;;;;;;8.17;92.67;100304.01;1791318;80;25579;-52
2022/11/05 17:31:11;;;;;;;59.73;37.80;;;;;;;8.19;92.91;100311.24;1791640;79;25571;-49
2022/11/05 17:33:40;;;;;;;55.48;37.53;;;;;;;8.19;92.86;100312.59;1791395;79;25553;-53
2022/11/05 17:36:12;;;;;;;59.00;36.95;;;;;;;8.21;92.90;100304.22;1791409;80;25586;-50
2022/11/05 17:38:41;;;;;;;59.40;38.23;;;;;;;8.21;92.92;100312.30;1791284;79;27470;-54
2022/11/05 17:41:18;;;;;;;58.80;37.67;;;;;;;8.23;93.03;100317.64;1791499;80;25427;-52
2022/11/05 17:43:46;;;;;;;63.20;38.70;;;;;;;8.22;92.75;100319.27;1791324;80;25565;-54
2022/11/05 17:46:17;;;;;;;55.40;36.77;;;;;;;8.23;92.83;100319.54;1791079;79;25471;-54
2022/11/05 17:48:46;;;;;;;63.80;38.40;;;;;;;8.23;93.08;100312.80;1791429;80;25387;-51
2022/11/05 17:51:17;;;;;;;61.10;37.90;;;;;;;8.24;93.15;100319.80;1791299;80;27493;-51
2022/11/05 17:53:47;;;;;;;67.27;41.28;;;;;;;8.26;93.35;100324.87;1791300;80;25432;-52
2022/11/05 17:56:19;;;;;;;65.32;40.43;;;;;;;8.27;93.22;100332.67;1791471;79;25493;-56
2022/11/05 17:58:48;;;;;;;63.75;41.23;;;;;;;8.28;93.36;100326.76;1791311;80;25473;-50
2022/11/05 18:01:28;;;;;;;74.22;41.90;;;;;;;8.28;93.46;100321.37;1791347;79;25380;-51
2022/11/05 18:03:55;;;;;;;64.25;40.12;;;;;;;8.29;93.58;100327.81;1791302;79;27495;-50
2022/11/05 18:06:21;;;;;;;64.22;39.33;;;;;;;8.32;93.67;100334.50;1791240;79;25380;-54
2022/11/05 18:08:52;;;;;;;68.83;43.63;;;;;;;8.31;93.56;100333.70;1791351;79;25606;-50
2022/11/05 18:11:18;;;;;;;65.97;40.95;;;;;;;8.31;93.55;100336.92;1791277;79;25523;-52
2022/11/05 18:13:44;;;;;;;70.32;42.45;;;;;;;8.32;93.66;100340.68;1791302;80;25564;-51
2022/11/05 18:16:10;;;;;;;77.17;46.08;;;;;;;8.32;93.61;100340.68;1791296;79;27629;-53
2022/11/05 18:18:36;;;;;;;76.65;44.80;;;;;;;8.31;93.56;100339.09;1791120;79;32560;-52
2022/11/05 18:21:05;;;;;;;69.77;43.28;;;;;;;8.31;93.69;100343.66;1791239;79;25573;-52
2022/11/05 18:23:33;;;;;;;70.57;43.77;;;;;;;8.32;93.65;100349.32;1791537;80;25553;-53
2022/11/05 18:26:10;;;;;;;74.75;43.90;;;;;;;8.33;93.92;100343.64;1791377;79;25513;-55
2022/11/05 18:28:40;;;;;;;75.60;44.35;;;;;;;8.33;93.96;100340.95;1791381;80;27478;-51
2022/11/05 18:31:24;;;;;;;68.07;43.52;;;;;;;8.33;93.95;100344.99;1791933;79;25431;-52
2022/11/05 18:33:58;;;;;;;78.87;45.12;;;;;;;8.34;94.04;100343.09;1738814;82;25739;-53
2022/11/05 18:36:28;;;;;;;77.82;46.70;;;;;;;8.35;94.23;100343.36;1680942;85;27348;-51
2022/11/05 18:38:59;;;;;;;69.90;43.87;;;;;;;8.35;94.11;100348.19;1695554;84;25737;-53